sensor_id;sensor_type;location;lat;lon;timestamp;P1;durP1;ratioP1;P2;durP2;ratioP2
72926;SDS011;61071;51.618;19.388;2023-04-05T00:01:38;16.38;;;8.43;;
72926;SDS011;61071;51.618;19.388;2023-04-05T00:04:04;16.85;;;9.23;;
72926;SDS011;61071;51.618;19.388;2023-04-05T00:06:31;17.48;;;9.82;;
72926;SDS011;61071;51.618;19.388;2023-04-05T00:08:58;21.80;;;11.52;;
72926;SDS011;61071;51.618;19.388;2023-04-05T00:11:28;22.23;;;10.43;;
72926;SDS011;61071;51.618;19.388;2023-04-05T00:13:55;27.38;;;12.15;;
72926;SDS011;61071;51.618;19.388;2023-04-05T00:16:23;20.10;;;9.80;;
72926;SDS011;61071;51.618;19.388;2023-04-05T00:18:50;15.15;;;8.52;;
72926;SDS011;61071;51.618;19.388;2023-04-05T00:21:17;18.50;;;9.30;;
72926;SDS011;61071;51.618;19.388;2023-04-05T00:23:51;16.23;;;8.60;;
72926;SDS011;61071;51.618;19.388;2023-04-05T00:28:48;17.02;;;8.55;;
72926;SDS011;61071;51.618;19.388;2023-04-05T00:31:14;20.80;;;10.65;;
72926;SDS011;61071;51.618;19.388;2023-04-05T00:33:41;25.05;;;12.23;;
72926;SDS011;61071;51.618;19.388;2023-04-05T00:36:16;22.08;;;12.25;;
72926;SDS011;61071;51.618;19.388;2023-04-05T00:38:45;24.13;;;12.32;;
72926;SDS011;61071;51.618;19.388;2023-04-05T00:41:13;20.05;;;10.93;;
72926;SDS011;61071;51.618;19.388;2023-04-05T00:43:39;19.27;;;10.38;;
72926;SDS011;61071;51.618;19.388;2023-04-05T00:46:05;23.48;;;11.93;;
72926;SDS011;61071;51.618;19.388;2023-04-05T00:48:33;21.05;;;10.90;;
72926;SDS011;61071;51.618;19.388;2023-04-05T00:51:00;18.77;;;10.25;;
72926;SDS011;61071;51.618;19.388;2023-04-05T00:53:26;17.77;;;10.00;;
72926;SDS011;61071;51.618;19.388;2023-04-05T00:55:53;20.08;;;10.52;;
72926;SDS011;61071;51.618;19.388;2023-04-05T00:58:20;19.15;;;10.77;;
72926;SDS011;61071;51.618;19.388;2023-04-05T01:00:51;22.05;;;10.98;;
72926;SDS011;61071;51.618;19.388;2023-04-05T01:03:51;24.77;;;11.70;;
72926;SDS011;61071;51.618;19.388;2023-04-05T01:06:43;21.75;;;12.32;;
72926;SDS011;61071;51.618;19.388;2023-04-05T01:09:36;19.92;;;10.48;;
72926;SDS011;61071;51.618;19.388;2023-04-05T01:12:16;24.23;;;12.52;;
72926;SDS011;61071;51.618;19.388;2023-04-05T01:14:48;22.55;;;11.73;;
72926;SDS011;61071;51.618;19.388;2023-04-05T01:17:16;25.27;;;11.88;;
72926;SDS011;61071;51.618;19.388;2023-04-05T01:19:56;25.77;;;14.48;;
72926;SDS011;61071;51.618;19.388;2023-04-05T01:33:57;17.40;;;10.43;;
72926;SDS011;61071;51.618;19.388;2023-04-05T01:39:19;25.85;;;13.90;;
72926;SDS011;61071;51.618;19.388;2023-04-05T01:41:45;22.10;;;13.60;;
72926;SDS011;61071;51.618;19.388;2023-04-05T01:44:11;25.02;;;13.27;;
72926;SDS011;61071;51.618;19.388;2023-04-05T01:46:37;26.02;;;13.30;;
72926;SDS011;61071;51.618;19.388;2023-04-05T01:49:03;27.48;;;13.20;;
72926;SDS011;61071;51.618;19.388;2023-04-05T01:51:29;27.63;;;14.63;;
72926;SDS011;61071;51.618;19.388;2023-04-05T01:53:55;30.80;;;14.90;;
72926;SDS011;61071;51.618;19.388;2023-04-05T01:56:21;32.45;;;14.45;;
72926;SDS011;61071;51.618;19.388;2023-04-05T01:58:47;32.03;;;15.40;;
72926;SDS011;61071;51.618;19.388;2023-04-05T02:01:12;24.83;;;13.95;;
72926;SDS011;61071;51.618;19.388;2023-04-05T02:03:38;23.88;;;12.55;;
72926;SDS011;61071;51.618;19.388;2023-04-05T02:06:04;25.00;;;12.68;;
72926;SDS011;61071;51.618;19.388;2023-04-05T02:08:30;23.80;;;12.77;;
72926;SDS011;61071;51.618;19.388;2023-04-05T02:10:56;28.48;;;14.13;;
72926;SDS011;61071;51.618;19.388;2023-04-05T02:13:21;27.17;;;14.15;;
72926;SDS011;61071;51.618;19.388;2023-04-05T02:15:48;21.08;;;11.65;;
72926;SDS011;61071;51.618;19.388;2023-04-05T02:18:14;21.83;;;11.13;;
72926;SDS011;61071;51.618;19.388;2023-04-05T02:20:46;22.60;;;11.23;;
72926;SDS011;61071;51.618;19.388;2023-04-05T02:23:16;22.13;;;10.77;;
72926;SDS011;61071;51.618;19.388;2023-04-05T02:25:44;19.75;;;10.32;;
72926;SDS011;61071;51.618;19.388;2023-04-05T02:28:10;17.52;;;9.88;;
72926;SDS011;61071;51.618;19.388;2023-04-05T02:30:35;18.55;;;10.07;;
72926;SDS011;61071;51.618;19.388;2023-04-05T02:33:01;16.98;;;9.63;;
72926;SDS011;61071;51.618;19.388;2023-04-05T02:35:28;18.50;;;9.35;;
72926;SDS011;61071;51.618;19.388;2023-04-05T02:37:54;16.48;;;9.20;;
72926;SDS011;61071;51.618;19.388;2023-04-05T02:40:20;20.05;;;9.88;;
72926;SDS011;61071;51.618;19.388;2023-04-05T02:42:46;21.05;;;10.32;;
72926;SDS011;61071;51.618;19.388;2023-04-05T02:45:12;18.88;;;10.00;;
72926;SDS011;61071;51.618;19.388;2023-04-05T02:47:38;16.90;;;9.93;;
72926;SDS011;61071;51.618;19.388;2023-04-05T02:50:03;24.08;;;10.70;;
72926;SDS011;61071;51.618;19.388;2023-04-05T02:52:30;18.45;;;10.57;;
72926;SDS011;61071;51.618;19.388;2023-04-05T02:54:56;22.90;;;10.85;;
72926;SDS011;61071;51.618;19.388;2023-04-05T02:57:22;20.63;;;10.50;;
72926;SDS011;61071;51.618;19.388;2023-04-05T02:59:47;18.75;;;9.52;;
72926;SDS011;61071;51.618;19.388;2023-04-05T03:02:13;20.63;;;9.88;;
72926;SDS011;61071;51.618;19.388;2023-04-05T03:04:38;18.40;;;9.10;;
72926;SDS011;61071;51.618;19.388;2023-04-05T03:07:05;18.40;;;9.57;;
72926;SDS011;61071;51.618;19.388;2023-04-05T03:09:32;19.67;;;9.45;;
72926;SDS011;61071;51.618;19.388;2023-04-05T03:12:01;17.52;;;9.88;;
72926;SDS011;61071;51.618;19.388;2023-04-05T03:14:28;20.38;;;10.50;;
72926;SDS011;61071;51.618;19.388;2023-04-05T03:16:55;20.90;;;10.88;;
72926;SDS011;61071;51.618;19.388;2023-04-05T03:19:22;32.35;;;10.05;;
72926;SDS011;61071;51.618;19.388;2023-04-05T03:21:50;23.08;;;10.52;;
72926;SDS011;61071;51.618;19.388;2023-04-05T03:24:17;18.77;;;10.05;;
72926;SDS011;61071;51.618;19.388;2023-04-05T03:26:44;25.95;;;14.13;;
72926;SDS011;61071;51.618;19.388;2023-04-05T03:29:11;21.50;;;11.60;;
72926;SDS011;61071;51.618;19.388;2023-04-05T03:31:37;19.95;;;10.50;;
72926;SDS011;61071;51.618;19.388;2023-04-05T03:34:03;18.90;;;10.15;;
72926;SDS011;61071;51.618;19.388;2023-04-05T03:36:29;20.67;;;11.00;;
72926;SDS011;61071;51.618;19.388;2023-04-05T03:39:05;22.92;;;11.57;;
72926;SDS011;61071;51.618;19.388;2023-04-05T03:41:36;20.70;;;11.18;;
72926;SDS011;61071;51.618;19.388;2023-04-05T03:44:03;18.30;;;10.60;;
72926;SDS011;61071;51.618;19.388;2023-04-05T03:46:29;26.92;;;12.02;;
72926;SDS011;61071;51.618;19.388;2023-04-05T03:48:55;22.15;;;12.20;;
72926;SDS011;61071;51.618;19.388;2023-04-05T03:51:22;25.23;;;11.93;;
72926;SDS011;61071;51.618;19.388;2023-04-05T03:53:48;21.20;;;11.85;;
72926;SDS011;61071;51.618;19.388;2023-04-05T03:56:15;19.42;;;10.38;;
72926;SDS011;61071;51.618;19.388;2023-04-05T03:58:40;23.33;;;11.00;;
72926;SDS011;61071;51.618;19.388;2023-04-05T04:01:06;19.73;;;11.23;;
72926;SDS011;61071;51.618;19.388;2023-04-05T04:03:32;23.73;;;13.25;;
72926;SDS011;61071;51.618;19.388;2023-04-05T04:05:58;26.75;;;12.50;;
72926;SDS011;61071;51.618;19.388;2023-04-05T04:08:24;23.60;;;11.95;;
72926;SDS011;61071;51.618;19.388;2023-04-05T04:10:50;23.10;;;12.25;;
72926;SDS011;61071;51.618;19.388;2023-04-05T04:13:16;21.80;;;12.65;;
72926;SDS011;61071;51.618;19.388;2023-04-05T04:15:43;25.85;;;13.45;;
72926;SDS011;61071;51.618;19.388;2023-04-05T04:18:09;23.60;;;12.15;;
72926;SDS011;61071;51.618;19.388;2023-04-05T04:20:36;18.50;;;11.30;;
72926;SDS011;61071;51.618;19.388;2023-04-05T04:23:03;25.65;;;12.10;;
72926;SDS011;61071;51.618;19.388;2023-04-05T04:25:30;33.63;;;14.60;;
72926;SDS011;61071;51.618;19.388;2023-04-05T04:27:56;31.80;;;13.50;;
72926;SDS011;61071;51.618;19.388;2023-04-05T04:30:22;24.35;;;11.98;;
72926;SDS011;61071;51.618;19.388;2023-04-05T04:32:50;25.48;;;13.45;;
72926;SDS011;61071;51.618;19.388;2023-04-05T04:35:17;23.63;;;12.18;;
72926;SDS011;61071;51.618;19.388;2023-04-05T04:37:54;27.92;;;14.15;;
72926;SDS011;61071;51.618;19.388;2023-04-05T04:40:31;23.95;;;13.93;;
72926;SDS011;61071;51.618;19.388;2023-04-05T04:43:19;25.80;;;12.23;;
72926;SDS011;61071;51.618;19.388;2023-04-05T04:45:51;26.27;;;13.38;;
72926;SDS011;61071;51.618;19.388;2023-04-05T04:48:19;25.65;;;13.60;;
72926;SDS011;61071;51.618;19.388;2023-04-05T04:50:46;23.40;;;13.82;;
72926;SDS011;61071;51.618;19.388;2023-04-05T04:53:13;28.85;;;14.32;;
72926;SDS011;61071;51.618;19.388;2023-04-05T04:55:42;37.45;;;17.63;;
72926;SDS011;61071;51.618;19.388;2023-04-05T04:58:08;28.63;;;15.73;;
72926;SDS011;61071;51.618;19.388;2023-04-05T05:00:41;37.95;;;20.33;;
72926;SDS011;61071;51.618;19.388;2023-04-05T05:03:11;25.83;;;13.05;;
72926;SDS011;61071;51.618;19.388;2023-04-05T05:05:45;27.77;;;14.13;;
72926;SDS011;61071;51.618;19.388;2023-04-05T05:08:12;24.17;;;12.32;;
72926;SDS011;61071;51.618;19.388;2023-04-05T05:10:38;25.30;;;15.02;;
72926;SDS011;61071;51.618;19.388;2023-04-05T05:13:04;69.63;;;32.55;;
72926;SDS011;61071;51.618;19.388;2023-04-05T05:15:30;36.83;;;21.65;;
72926;SDS011;61071;51.618;19.388;2023-04-05T05:17:56;26.45;;;14.05;;
72926;SDS011;61071;51.618;19.388;2023-04-05T05:20:23;27.83;;;14.57;;
72926;SDS011;61071;51.618;19.388;2023-04-05T05:22:51;38.35;;;20.40;;
72926;SDS011;61071;51.618;19.388;2023-04-05T05:25:16;36.38;;;16.95;;
72926;SDS011;61071;51.618;19.388;2023-04-05T05:27:42;25.65;;;14.38;;
72926;SDS011;61071;51.618;19.388;2023-04-05T05:30:08;24.02;;;12.82;;
72926;SDS011;61071;51.618;19.388;2023-04-05T05:32:35;22.35;;;13.23;;
72926;SDS011;61071;51.618;19.388;2023-04-05T05:35:00;24.50;;;12.95;;
72926;SDS011;61071;51.618;19.388;2023-04-05T05:37:30;24.08;;;13.23;;
72926;SDS011;61071;51.618;19.388;2023-04-05T05:39:57;21.60;;;13.15;;
72926;SDS011;61071;51.618;19.388;2023-04-05T05:42:24;22.35;;;13.40;;
72926;SDS011;61071;51.618;19.388;2023-04-05T05:44:51;25.48;;;12.90;;
72926;SDS011;61071;51.618;19.388;2023-04-05T05:47:17;24.25;;;13.70;;
72926;SDS011;61071;51.618;19.388;2023-04-05T05:49:43;24.58;;;14.35;;
72926;SDS011;61071;51.618;19.388;2023-04-05T05:52:08;22.23;;;13.48;;
72926;SDS011;61071;51.618;19.388;2023-04-05T05:54:34;27.58;;;15.73;;
72926;SDS011;61071;51.618;19.388;2023-04-05T05:57:00;23.30;;;13.82;;
72926;SDS011;61071;51.618;19.388;2023-04-05T05:59:26;25.67;;;13.77;;
72926;SDS011;61071;51.618;19.388;2023-04-05T06:01:53;28.25;;;15.07;;
72926;SDS011;61071;51.618;19.388;2023-04-05T06:04:19;26.50;;;15.48;;
72926;SDS011;61071;51.618;19.388;2023-04-05T06:06:45;23.67;;;14.63;;
72926;SDS011;61071;51.618;19.388;2023-04-05T06:09:12;25.35;;;16.77;;
72926;SDS011;61071;51.618;19.388;2023-04-05T06:11:41;27.45;;;16.45;;
72926;SDS011;61071;51.618;19.388;2023-04-05T06:14:07;24.50;;;16.38;;
72926;SDS011;61071;51.618;19.388;2023-04-05T06:16:33;25.42;;;14.82;;
72926;SDS011;61071;51.618;19.388;2023-04-05T06:18:59;25.90;;;15.50;;
72926;SDS011;61071;51.618;19.388;2023-04-05T06:21:25;24.20;;;14.60;;
72926;SDS011;61071;51.618;19.388;2023-04-05T06:23:52;27.05;;;15.35;;
72926;SDS011;61071;51.618;19.388;2023-04-05T06:26:18;24.15;;;15.30;;
72926;SDS011;61071;51.618;19.388;2023-04-05T06:28:51;27.45;;;15.85;;
72926;SDS011;61071;51.618;19.388;2023-04-05T06:31:25;27.35;;;16.42;;
72926;SDS011;61071;51.618;19.388;2023-04-05T06:33:55;25.33;;;15.45;;
72926;SDS011;61071;51.618;19.388;2023-04-05T06:36:21;29.00;;;15.00;;
72926;SDS011;61071;51.618;19.388;2023-04-05T06:38:46;24.70;;;14.38;;
72926;SDS011;61071;51.618;19.388;2023-04-05T06:41:12;24.77;;;13.30;;
72926;SDS011;61071;51.618;19.388;2023-04-05T06:43:37;26.15;;;14.20;;
72926;SDS011;61071;51.618;19.388;2023-04-05T06:46:03;33.78;;;14.82;;
72926;SDS011;61071;51.618;19.388;2023-04-05T06:48:32;30.15;;;14.05;;
72926;SDS011;61071;51.618;19.388;2023-04-05T06:50:59;32.45;;;12.85;;
72926;SDS011;61071;51.618;19.388;2023-04-05T06:53:27;25.80;;;13.13;;
72926;SDS011;61071;51.618;19.388;2023-04-05T06:55:53;20.73;;;12.52;;
72926;SDS011;61071;51.618;19.388;2023-04-05T06:58:20;21.02;;;11.07;;
72926;SDS011;61071;51.618;19.388;2023-04-05T07:00:47;21.88;;;12.20;;
72926;SDS011;61071;51.618;19.388;2023-04-05T07:03:16;21.17;;;11.30;;
72926;SDS011;61071;51.618;19.388;2023-04-05T07:05:56;14.32;;;7.90;;
72926;SDS011;61071;51.618;19.388;2023-04-05T07:08:24;15.03;;;8.90;;
72926;SDS011;61071;51.618;19.388;2023-04-05T07:10:55;14.93;;;8.30;;
72926;SDS011;61071;51.618;19.388;2023-04-05T07:13:21;14.75;;;7.47;;
72926;SDS011;61071;51.618;19.388;2023-04-05T07:15:49;14.02;;;6.88;;
72926;SDS011;61071;51.618;19.388;2023-04-05T07:18:16;12.88;;;6.35;;
72926;SDS011;61071;51.618;19.388;2023-04-05T07:20:45;12.52;;;6.50;;
72926;SDS011;61071;51.618;19.388;2023-04-05T07:23:13;11.27;;;4.85;;
72926;SDS011;61071;51.618;19.388;2023-04-05T07:25:39;8.68;;;4.85;;
72926;SDS011;61071;51.618;19.388;2023-04-05T07:28:05;12.73;;;5.43;;
72926;SDS011;61071;51.618;19.388;2023-04-05T07:30:31;12.35;;;7.30;;
72926;SDS011;61071;51.618;19.388;2023-04-05T07:32:56;11.88;;;6.82;;
72926;SDS011;61071;51.618;19.388;2023-04-05T07:35:22;14.88;;;7.25;;
72926;SDS011;61071;51.618;19.388;2023-04-05T07:37:49;11.40;;;6.72;;
72926;SDS011;61071;51.618;19.388;2023-04-05T07:40:15;11.43;;;6.25;;
72926;SDS011;61071;51.618;19.388;2023-04-05T07:42:40;15.45;;;7.07;;
72926;SDS011;61071;51.618;19.388;2023-04-05T07:45:06;16.10;;;6.88;;
72926;SDS011;61071;51.618;19.388;2023-04-05T07:47:33;11.85;;;5.80;;
72926;SDS011;61071;51.618;19.388;2023-04-05T07:49:59;10.20;;;5.35;;
72926;SDS011;61071;51.618;19.388;2023-04-05T07:52:25;9.75;;;5.50;;
72926;SDS011;61071;51.618;19.388;2023-04-05T07:54:51;11.85;;;4.90;;
72926;SDS011;61071;51.618;19.388;2023-04-05T07:57:17;8.75;;;4.50;;
72926;SDS011;61071;51.618;19.388;2023-04-05T07:59:43;14.32;;;5.28;;
72926;SDS011;61071;51.618;19.388;2023-04-05T08:02:10;12.35;;;5.50;;
72926;SDS011;61071;51.618;19.388;2023-04-05T08:04:35;11.02;;;5.50;;
72926;SDS011;61071;51.618;19.388;2023-04-05T08:07:01;10.90;;;5.13;;
72926;SDS011;61071;51.618;19.388;2023-04-05T08:09:27;6.78;;;4.40;;
72926;SDS011;61071;51.618;19.388;2023-04-05T08:11:52;10.10;;;4.70;;
72926;SDS011;61071;51.618;19.388;2023-04-05T08:14:18;10.73;;;4.10;;
72926;SDS011;61071;51.618;19.388;2023-04-05T08:16:44;9.57;;;4.57;;
72926;SDS011;61071;51.618;19.388;2023-04-05T08:19:10;9.18;;;4.13;;
72926;SDS011;61071;51.618;19.388;2023-04-05T08:21:37;8.95;;;4.72;;
72926;SDS011;61071;51.618;19.388;2023-04-05T08:24:02;10.75;;;3.70;;
72926;SDS011;61071;51.618;19.388;2023-04-05T08:26:28;13.35;;;3.72;;
72926;SDS011;61071;51.618;19.388;2023-04-05T08:28:54;5.85;;;3.13;;
72926;SDS011;61071;51.618;19.388;2023-04-05T08:31:19;5.25;;;3.05;;
72926;SDS011;61071;51.618;19.388;2023-04-05T08:33:45;6.72;;;3.45;;
72926;SDS011;61071;51.618;19.388;2023-04-05T08:36:11;5.70;;;3.05;;
72926;SDS011;61071;51.618;19.388;2023-04-05T08:38:36;5.78;;;2.90;;
72926;SDS011;61071;51.618;19.388;2023-04-05T08:41:06;5.45;;;2.92;;
72926;SDS011;61071;51.618;19.388;2023-04-05T08:43:53;4.65;;;2.03;;
72926;SDS011;61071;51.618;19.388;2023-04-05T08:46:31;3.92;;;2.50;;
72926;SDS011;61071;51.618;19.388;2023-04-05T08:48:58;6.90;;;2.50;;
72926;SDS011;61071;51.618;19.388;2023-04-05T08:51:30;6.70;;;2.30;;
72926;SDS011;61071;51.618;19.388;2023-04-05T08:53:55;4.25;;;2.60;;
72926;SDS011;61071;51.618;19.388;2023-04-05T08:56:26;4.75;;;2.45;;
72926;SDS011;61071;51.618;19.388;2023-04-05T08:59:01;3.88;;;2.10;;
72926;SDS011;61071;51.618;19.388;2023-04-05T09:01:32;3.03;;;1.95;;
72926;SDS011;61071;51.618;19.388;2023-04-05T09:04:04;3.95;;;2.53;;
72926;SDS011;61071;51.618;19.388;2023-04-05T09:06:36;5.18;;;2.28;;
72926;SDS011;61071;51.618;19.388;2023-04-05T09:09:04;4.47;;;2.45;;
72926;SDS011;61071;51.618;19.388;2023-04-05T09:11:33;3.03;;;1.80;;
72926;SDS011;61071;51.618;19.388;2023-04-05T09:14:03;4.03;;;2.25;;
72926;SDS011;61071;51.618;19.388;2023-04-05T09:16:34;7.55;;;2.33;;
72926;SDS011;61071;51.618;19.388;2023-04-05T09:19:03;3.40;;;2.10;;
72926;SDS011;61071;51.618;19.388;2023-04-05T09:21:34;6.07;;;2.70;;
72926;SDS011;61071;51.618;19.388;2023-04-05T09:24:47;6.25;;;2.53;;
72926;SDS011;61071;51.618;19.388;2023-04-05T09:27:12;4.75;;;2.25;;
72926;SDS011;61071;51.618;19.388;2023-04-05T09:29:44;4.75;;;2.50;;
72926;SDS011;61071;51.618;19.388;2023-04-05T09:32:11;3.67;;;2.38;;
72926;SDS011;61071;51.618;19.388;2023-04-05T09:34:39;4.43;;;2.53;;
72926;SDS011;61071;51.618;19.388;2023-04-05T09:37:14;4.40;;;2.53;;
72926;SDS011;61071;51.618;19.388;2023-04-05T09:39:46;4.18;;;2.38;;
72926;SDS011;61071;51.618;19.388;2023-04-05T09:42:17;4.13;;;2.30;;
72926;SDS011;61071;51.618;19.388;2023-04-05T09:44:53;4.38;;;2.40;;
72926;SDS011;61071;51.618;19.388;2023-04-05T09:47:25;3.90;;;2.20;;
72926;SDS011;61071;51.618;19.388;2023-04-05T09:49:56;5.80;;;2.22;;
72926;SDS011;61071;51.618;19.388;2023-04-05T09:52:26;3.55;;;2.15;;
72926;SDS011;61071;51.618;19.388;2023-04-05T09:54:59;7.88;;;2.40;;
72926;SDS011;61071;51.618;19.388;2023-04-05T09:57:28;6.15;;;2.50;;
72926;SDS011;61071;51.618;19.388;2023-04-05T09:59:59;4.68;;;2.30;;
72926;SDS011;61071;51.618;19.388;2023-04-05T10:02:33;4.55;;;2.58;;
72926;SDS011;61071;51.618;19.388;2023-04-05T10:05:08;5.10;;;2.30;;
72926;SDS011;61071;51.618;19.388;2023-04-05T10:07:38;4.03;;;2.53;;
72926;SDS011;61071;51.618;19.388;2023-04-05T10:10:10;5.55;;;2.28;;
72926;SDS011;61071;51.618;19.388;2023-04-05T10:12:40;5.63;;;2.70;;
72926;SDS011;61071;51.618;19.388;2023-04-05T10:15:07;4.68;;;2.50;;
72926;SDS011;61071;51.618;19.388;2023-04-05T10:17:42;4.45;;;2.50;;
72926;SDS011;61071;51.618;19.388;2023-04-05T10:20:24;5.25;;;2.40;;
72926;SDS011;61071;51.618;19.388;2023-04-05T10:22:59;5.47;;;2.53;;
72926;SDS011;61071;51.618;19.388;2023-04-05T10:25:42;7.30;;;2.70;;
72926;SDS011;61071;51.618;19.388;2023-04-05T10:28:22;3.28;;;2.33;;
72926;SDS011;61071;51.618;19.388;2023-04-05T10:36:38;5.13;;;2.58;;
72926;SDS011;61071;51.618;19.388;2023-04-05T10:39:15;4.97;;;2.85;;
72926;SDS011;61071;51.618;19.388;2023-04-05T10:42:09;5.50;;;2.47;;
72926;SDS011;61071;51.618;19.388;2023-04-05T10:44:42;5.05;;;2.47;;
72926;SDS011;61071;51.618;19.388;2023-04-05T10:47:13;6.07;;;2.65;;
72926;SDS011;61071;51.618;19.388;2023-04-05T10:49:46;5.03;;;2.30;;
72926;SDS011;61071;51.618;19.388;2023-04-05T10:52:17;4.47;;;2.55;;
72926;SDS011;61071;51.618;19.388;2023-04-05T10:54:44;4.20;;;2.55;;
72926;SDS011;61071;51.618;19.388;2023-04-05T10:57:10;5.88;;;3.00;;
72926;SDS011;61071;51.618;19.388;2023-04-05T10:59:43;6.82;;;2.80;;
72926;SDS011;61071;51.618;19.388;2023-04-05T11:02:12;4.50;;;2.63;;
72926;SDS011;61071;51.618;19.388;2023-04-05T11:04:39;4.63;;;2.55;;
72926;SDS011;61071;51.618;19.388;2023-04-05T11:07:09;6.85;;;2.65;;
72926;SDS011;61071;51.618;19.388;2023-04-05T11:09:54;4.43;;;2.33;;
72926;SDS011;61071;51.618;19.388;2023-04-05T11:15:27;4.72;;;2.55;;
72926;SDS011;61071;51.618;19.388;2023-04-05T11:23:23;3.63;;;2.45;;
72926;SDS011;61071;51.618;19.388;2023-04-05T11:25:50;4.40;;;2.47;;
72926;SDS011;61071;51.618;19.388;2023-04-05T11:28:30;4.55;;;2.45;;
72926;SDS011;61071;51.618;19.388;2023-04-05T11:31:19;4.22;;;2.30;;
72926;SDS011;61071;51.618;19.388;2023-04-05T11:36:12;4.72;;;2.28;;
72926;SDS011;61071;51.618;19.388;2023-04-05T11:38:42;4.47;;;2.47;;
72926;SDS011;61071;51.618;19.388;2023-04-05T11:41:12;5.25;;;2.67;;
72926;SDS011;61071;51.618;19.388;2023-04-05T11:43:44;5.38;;;2.33;;
72926;SDS011;61071;51.618;19.388;2023-04-05T11:46:16;5.60;;;2.08;;
72926;SDS011;61071;51.618;19.388;2023-04-05T11:48:47;5.28;;;2.53;;
72926;SDS011;61071;51.618;19.388;2023-04-05T11:51:14;4.07;;;2.35;;
72926;SDS011;61071;51.618;19.388;2023-04-05T11:53:45;7.38;;;2.70;;
72926;SDS011;61071;51.618;19.388;2023-04-05T11:56:11;5.18;;;2.28;;
72926;SDS011;61071;51.618;19.388;2023-04-05T11:58:40;3.85;;;2.30;;
72926;SDS011;61071;51.618;19.388;2023-04-05T12:01:07;4.43;;;2.40;;
72926;SDS011;61071;51.618;19.388;2023-04-05T12:03:34;5.05;;;2.60;;
72926;SDS011;61071;51.618;19.388;2023-04-05T12:06:02;6.70;;;2.35;;
72926;SDS011;61071;51.618;19.388;2023-04-05T12:08:37;7.03;;;2.70;;
72926;SDS011;61071;51.618;19.388;2023-04-05T12:11:07;6.13;;;2.92;;
72926;SDS011;61071;51.618;19.388;2023-04-05T12:13:35;5.60;;;2.90;;
72926;SDS011;61071;51.618;19.388;2023-04-05T12:16:03;6.75;;;2.80;;
72926;SDS011;61071;51.618;19.388;2023-04-05T12:18:31;2.95;;;2.30;;
72926;SDS011;61071;51.618;19.388;2023-04-05T12:21:02;4.47;;;2.50;;
72926;SDS011;61071;51.618;19.388;2023-04-05T12:23:31;5.38;;;2.85;;
72926;SDS011;61071;51.618;19.388;2023-04-05T12:25:57;5.32;;;2.50;;
72926;SDS011;61071;51.618;19.388;2023-04-05T12:28:24;11.25;;;5.60;;
72926;SDS011;61071;51.618;19.388;2023-04-05T12:30:54;6.25;;;3.05;;
72926;SDS011;61071;51.618;19.388;2023-04-05T12:33:40;3.60;;;2.33;;
72926;SDS011;61071;51.618;19.388;2023-04-05T12:36:08;5.55;;;2.90;;
72926;SDS011;61071;51.618;19.388;2023-04-05T12:38:35;6.07;;;2.97;;
72926;SDS011;61071;51.618;19.388;2023-04-05T12:41:03;4.97;;;2.83;;
72926;SDS011;61071;51.618;19.388;2023-04-05T12:43:38;6.65;;;3.20;;
72926;SDS011;61071;51.618;19.388;2023-04-05T12:46:09;4.57;;;2.72;;
72926;SDS011;61071;51.618;19.388;2023-04-05T12:48:48;5.18;;;2.78;;
72926;SDS011;61071;51.618;19.388;2023-04-05T12:51:15;9.77;;;2.70;;
72926;SDS011;61071;51.618;19.388;2023-04-05T12:53:44;7.15;;;3.13;;
72926;SDS011;61071;51.618;19.388;2023-04-05T12:56:12;3.38;;;2.13;;
72926;SDS011;61071;51.618;19.388;2023-04-05T12:58:40;5.28;;;2.60;;
72926;SDS011;61071;51.618;19.388;2023-04-05T13:01:06;3.30;;;2.40;;
72926;SDS011;61071;51.618;19.388;2023-04-05T13:03:32;4.50;;;2.65;;
72926;SDS011;61071;51.618;19.388;2023-04-05T13:05:57;4.75;;;2.47;;
72926;SDS011;61071;51.618;19.388;2023-04-05T13:08:23;3.55;;;2.60;;
72926;SDS011;61071;51.618;19.388;2023-04-05T13:10:51;3.17;;;2.30;;
72926;SDS011;61071;51.618;19.388;2023-04-05T13:13:17;4.60;;;2.55;;
72926;SDS011;61071;51.618;19.388;2023-04-05T13:15:46;14.75;;;9.90;;
72926;SDS011;61071;51.618;19.388;2023-04-05T13:18:12;69.05;;;42.75;;
72926;SDS011;61071;51.618;19.388;2023-04-05T13:20:39;6.00;;;4.50;;
72926;SDS011;61071;51.618;19.388;2023-04-05T13:23:06;5.40;;;2.28;;
72926;SDS011;61071;51.618;19.388;2023-04-05T13:25:36;9.60;;;2.40;;
72926;SDS011;61071;51.618;19.388;2023-04-05T13:28:06;6.05;;;2.72;;
72926;SDS011;61071;51.618;19.388;2023-04-05T13:30:32;4.80;;;3.05;;
72926;SDS011;61071;51.618;19.388;2023-04-05T13:32:58;8.45;;;3.30;;
72926;SDS011;61071;51.618;19.388;2023-04-05T13:35:23;10.10;;;2.80;;
72926;SDS011;61071;51.618;19.388;2023-04-05T13:37:49;6.50;;;3.28;;
72926;SDS011;61071;51.618;19.388;2023-04-05T13:40:15;3.67;;;2.40;;
72926;SDS011;61071;51.618;19.388;2023-04-05T13:42:41;6.03;;;2.38;;
72926;SDS011;61071;51.618;19.388;2023-04-05T13:45:08;3.55;;;2.47;;
72926;SDS011;61071;51.618;19.388;2023-04-05T13:47:34;8.68;;;3.17;;
72926;SDS011;61071;51.618;19.388;2023-04-05T13:50:00;7.68;;;3.92;;
72926;SDS011;61071;51.618;19.388;2023-04-05T13:52:27;4.80;;;2.95;;
72926;SDS011;61071;51.618;19.388;2023-04-05T13:54:53;5.80;;;3.10;;
72926;SDS011;61071;51.618;19.388;2023-04-05T13:57:19;5.63;;;2.58;;
72926;SDS011;61071;51.618;19.388;2023-04-05T13:59:46;7.38;;;3.60;;
72926;SDS011;61071;51.618;19.388;2023-04-05T14:02:12;11.48;;;6.55;;
72926;SDS011;61071;51.618;19.388;2023-04-05T14:04:39;8.27;;;4.78;;
72926;SDS011;61071;51.618;19.388;2023-04-05T14:07:07;5.10;;;2.50;;
72926;SDS011;61071;51.618;19.388;2023-04-05T14:09:33;4.88;;;2.38;;
72926;SDS011;61071;51.618;19.388;2023-04-05T14:11:59;5.18;;;3.00;;
72926;SDS011;61071;51.618;19.388;2023-04-05T14:14:27;5.38;;;2.80;;
72926;SDS011;61071;51.618;19.388;2023-04-05T14:16:53;5.15;;;2.30;;
72926;SDS011;61071;51.618;19.388;2023-04-05T14:19:19;4.82;;;2.53;;
72926;SDS011;61071;51.618;19.388;2023-04-05T14:21:45;7.38;;;2.88;;
72926;SDS011;61071;51.618;19.388;2023-04-05T14:24:11;7.13;;;2.88;;
72926;SDS011;61071;51.618;19.388;2023-04-05T14:26:37;4.70;;;3.20;;
72926;SDS011;61071;51.618;19.388;2023-04-05T14:29:03;4.28;;;2.58;;
72926;SDS011;61071;51.618;19.388;2023-04-05T14:31:29;3.80;;;2.30;;
72926;SDS011;61071;51.618;19.388;2023-04-05T14:33:55;4.55;;;2.47;;
72926;SDS011;61071;51.618;19.388;2023-04-05T14:36:20;4.78;;;2.90;;
72926;SDS011;61071;51.618;19.388;2023-04-05T14:38:46;4.82;;;2.70;;
72926;SDS011;61071;51.618;19.388;2023-04-05T14:41:12;6.07;;;2.17;;
72926;SDS011;61071;51.618;19.388;2023-04-05T14:43:38;5.78;;;2.58;;
72926;SDS011;61071;51.618;19.388;2023-04-05T14:46:04;4.70;;;2.47;;
72926;SDS011;61071;51.618;19.388;2023-04-05T14:48:30;7.40;;;2.45;;
72926;SDS011;61071;51.618;19.388;2023-04-05T14:50:58;5.20;;;2.63;;
72926;SDS011;61071;51.618;19.388;2023-04-05T14:53:24;4.47;;;2.50;;
72926;SDS011;61071;51.618;19.388;2023-04-05T14:55:50;5.35;;;2.78;;
72926;SDS011;61071;51.618;19.388;2023-04-05T14:58:16;5.40;;;3.00;;
72926;SDS011;61071;51.618;19.388;2023-04-05T15:00:45;6.78;;;2.90;;
72926;SDS011;61071;51.618;19.388;2023-04-05T15:03:14;4.45;;;2.97;;